createdAt,value
2022-10-12T00:00:53.946Z,58.21
2022-10-12T00:03:34.389Z,59.38
2022-10-12T00:06:13.080Z,60.55
2022-10-12T00:08:42.218Z,67.42
2022-10-12T00:11:14.051Z,70.81
2022-10-12T00:13:41.771Z,67.12
2022-10-12T00:16:12.317Z,63.54
2022-10-12T00:18:40.453Z,61.63
2022-10-12T00:21:16.276Z,57.47
2022-10-12T00:23:44.565Z,53.13
2022-10-12T00:26:13.790Z,51.59
2022-10-12T00:28:41.618Z,51.04
2022-10-12T00:31:15.185Z,52.58
2022-10-12T00:33:44.001Z,53.75
2022-10-12T00:36:23.433Z,55.11
2022-10-12T00:38:53.089Z,56.00
2022-10-12T00:41:23.671Z,57.43
2022-10-12T00:43:57.858Z,58.49
2022-10-12T00:46:30.092Z,59.65
2022-10-12T00:49:09.461Z,60.62
2022-10-12T00:51:39.310Z,66.74
2022-10-12T00:54:12.285Z,70.87
2022-10-12T00:56:44.245Z,67.28
2022-10-12T00:59:19.246Z,64.10
2022-10-12T01:01:46.928Z,61.91
2022-10-12T01:04:14.780Z,57.23
2022-10-12T01:06:42.470Z,53.22
2022-10-12T01:09:10.083Z,52.55
2022-10-12T01:11:37.850Z,52.86
2022-10-12T01:14:05.691Z,53.84
2022-10-12T01:16:36.294Z,54.94
2022-10-12T01:19:13.043Z,55.63
2022-10-12T01:21:50.422Z,56.29
2022-10-12T01:24:30.103Z,57.15
2022-10-12T01:27:12.231Z,58.17
2022-10-12T01:30:09.242Z,59.66
2022-10-12T01:33:04.631Z,60.72
2022-10-12T01:35:45.897Z,68.67
2022-10-12T01:38:35.233Z,70.89
2022-10-12T01:41:18.874Z,66.96
2022-10-12T01:43:47.211Z,63.95
2022-10-12T01:46:20.977Z,60.87
2022-10-12T01:48:51.986Z,56.44
2022-10-12T01:51:31.496Z,52.49
2022-10-12T01:54:24.731Z,51.60
2022-10-12T01:57:08.003Z,51.73
2022-10-12T01:59:41.546Z,53.03
2022-10-12T02:02:42.045Z,54.32
2022-10-12T02:05:14.856Z,54.59
2022-10-12T02:07:48.403Z,53.73
2022-10-12T02:10:28.361Z,56.26
2022-10-12T02:12:59.177Z,57.58
2022-10-12T02:15:28.082Z,59.12
2022-10-12T02:17:57.985Z,60.72
2022-10-12T02:20:27.666Z,66.86
2022-10-12T02:22:55.627Z,71.27
2022-10-12T02:25:26.943Z,70.41
2022-10-12T02:28:00.602Z,65.19
2022-10-12T02:30:28.292Z,62.86
2022-10-12T02:33:06.365Z,60.47
2022-10-12T02:36:03.604Z,55.25
2022-10-12T02:38:58.088Z,51.81
2022-10-12T02:41:33.328Z,51.37
2022-10-12T02:44:05.121Z,51.99
2022-10-12T02:46:35.376Z,52.81
2022-10-12T02:49:04.516Z,53.68
2022-10-12T02:51:33.092Z,54.67
2022-10-12T02:54:01.917Z,55.92
2022-10-12T02:56:29.694Z,57.36
2022-10-12T02:58:57.623Z,58.51
2022-10-12T03:01:25.367Z,59.43
2022-10-12T03:03:53.039Z,60.45
2022-10-12T03:06:20.716Z,66.23
2022-10-12T03:08:48.422Z,71.48
2022-10-12T03:11:16.048Z,67.74
2022-10-12T03:13:43.691Z,64.43
2022-10-12T03:16:12.098Z,61.69
2022-10-12T03:18:40.289Z,57.60
2022-10-12T03:21:08.035Z,53.31
2022-10-12T03:23:35.626Z,52.27
2022-10-12T03:26:04.196Z,52.58
2022-10-12T03:28:32.831Z,53.60
2022-10-12T03:31:01.058Z,54.66
2022-10-12T03:33:29.410Z,55.38
2022-10-12T03:35:57.266Z,56.32
2022-10-12T03:38:24.936Z,57.60
2022-10-12T03:40:52.604Z,58.66
2022-10-12T03:43:20.386Z,59.42
2022-10-12T03:45:48.046Z,60.37
2022-10-12T03:48:15.794Z,61.35
2022-10-12T03:50:48.489Z,66.72
2022-10-12T03:53:16.611Z,71.51
2022-10-12T03:55:44.455Z,68.15
2022-10-12T03:58:13.248Z,65.06
2022-10-12T04:00:41.873Z,61.55
2022-10-12T04:03:09.539Z,55.54
2022-10-12T04:05:37.211Z,51.90
2022-10-12T04:08:05.060Z,51.13
2022-10-12T04:10:32.693Z,51.56
2022-10-12T04:13:00.306Z,52.44
2022-10-12T04:15:27.944Z,53.50
2022-10-12T04:17:55.609Z,54.59
2022-10-12T04:20:23.269Z,55.64
2022-10-12T04:22:50.890Z,56.61
2022-10-12T04:25:18.569Z,57.76
2022-10-12T04:27:46.208Z,58.52
2022-10-12T04:30:14.163Z,59.42
2022-10-12T04:32:42.046Z,60.55
2022-10-12T04:35:09.730Z,66.23
2022-10-12T04:37:37.761Z,71.71
2022-10-12T04:40:06.341Z,68.42
2022-10-12T04:42:34.000Z,65.10
2022-10-12T04:45:01.792Z,62.33
2022-10-12T04:47:29.535Z,58.45
2022-10-12T04:49:57.111Z,53.66
2022-10-12T04:52:24.773Z,52.37
2022-10-12T04:54:52.432Z,52.40
2022-10-12T04:57:20.294Z,53.03
2022-10-12T04:59:47.921Z,53.91
2022-10-12T05:02:15.957Z,55.04
2022-10-12T05:04:43.758Z,56.24
2022-10-12T05:07:11.466Z,57.47
2022-10-12T05:09:39.368Z,58.64
2022-10-12T05:12:07.236Z,59.45
2022-10-12T05:14:36.204Z,60.42
2022-10-12T05:20:26.713Z,71.63
2022-10-12T05:22:54.362Z,71.07
2022-10-12T05:25:22.174Z,67.58
2022-10-12T05:27:49.857Z,64.18
2022-10-12T05:30:17.680Z,61.04
2022-10-12T05:32:45.316Z,56.82
2022-10-12T05:35:13.020Z,53.07
2022-10-12T05:37:41.110Z,52.19
2022-10-12T05:40:09.278Z,52.63
2022-10-12T05:42:37.218Z,53.48
2022-10-12T05:45:06.059Z,54.51
2022-10-12T05:47:33.868Z,55.55
2022-10-12T05:50:01.840Z,56.93
2022-10-12T05:52:29.681Z,57.94
2022-10-12T05:54:57.311Z,59.29
2022-10-12T05:57:24.989Z,60.07
2022-10-12T05:59:52.623Z,61.26
2022-10-12T06:02:21.623Z,67.62
2022-10-12T06:04:49.381Z,70.87
2022-10-12T06:07:17.120Z,66.49
2022-10-12T06:09:44.823Z,62.77
2022-10-12T06:12:12.777Z,59.74
2022-10-12T06:14:40.415Z,54.57
2022-10-12T06:17:09.584Z,51.68
2022-10-12T06:19:37.341Z,51.61
2022-10-12T06:22:05.127Z,52.47
2022-10-12T06:24:32.847Z,53.57
2022-10-12T06:27:01.168Z,54.77
2022-10-12T06:29:28.780Z,55.94
2022-10-12T06:31:56.525Z,57.56
2022-10-12T06:34:24.228Z,57.87
2022-10-12T06:36:52.314Z,59.36
2022-10-12T06:39:20.037Z,59.90
2022-10-12T06:41:47.777Z,60.76
2022-10-12T06:44:15.603Z,61.28
2022-10-12T06:46:43.295Z,66.94
2022-10-12T06:49:11.057Z,67.16
2022-10-12T06:51:39.103Z,63.28
2022-10-12T06:54:06.710Z,55.82
2022-10-12T06:56:35.055Z,51.91
2022-10-12T06:59:02.707Z,51.78
2022-10-12T07:01:30.471Z,52.69
2022-10-12T07:04:00.653Z,53.67
2022-10-12T07:06:28.828Z,54.93
2022-10-12T07:08:56.502Z,53.76
2022-10-12T07:11:24.271Z,52.64
2022-10-12T07:13:51.865Z,51.86
2022-10-12T07:16:19.642Z,51.22
2022-10-12T07:18:47.311Z,49.08
2022-10-12T07:21:15.035Z,48.16
2022-10-12T07:23:46.043Z,45.63
2022-10-12T07:26:14.326Z,44.21
2022-10-12T07:28:42.059Z,42.69
2022-10-12T07:31:10.068Z,44.29
2022-10-12T07:33:41.188Z,42.79
2022-10-12T07:36:21.286Z,41.70
2022-10-12T07:38:50.161Z,42.30
2022-10-12T07:41:18.520Z,39.11
2022-10-12T07:43:46.256Z,39.05
2022-10-12T07:46:14.047Z,36.36
2022-10-12T07:48:47.273Z,35.91
2022-10-12T07:51:18.446Z,35.08
2022-10-12T07:53:46.203Z,33.06
2022-10-12T07:56:17.209Z,32.44
2022-10-12T07:58:50.371Z,33.19
2022-10-12T08:01:19.773Z,34.42
2022-10-12T08:03:48.275Z,30.26
2022-10-12T08:06:18.901Z,32.27
2022-10-12T08:08:46.983Z,33.06
2022-10-12T08:11:14.691Z,27.42
2022-10-12T08:13:43.506Z,26.86
2022-10-12T08:16:14.694Z,29.92
2022-10-12T08:18:42.646Z,29.75
2022-10-12T08:21:12.931Z,28.67
2022-10-12T08:23:41.097Z,25.70
2022-10-12T08:26:09.893Z,23.15
2022-10-12T08:28:37.744Z,25.83
2022-10-12T08:31:07.283Z,25.28
2022-10-12T08:33:35.272Z,24.33
2022-10-12T08:36:05.234Z,22.58
2022-10-12T08:38:33.752Z,22.96
2022-10-12T08:41:06.990Z,21.98
2022-10-12T08:43:52.301Z,20.53
2022-10-12T08:46:22.469Z,21.51
2022-10-12T08:48:59.988Z,20.99
2022-10-12T08:51:31.744Z,20.46
2022-10-12T08:54:07.539Z,19.01
2022-10-12T08:56:35.864Z,17.88
2022-10-12T08:59:03.745Z,18.71
2022-10-12T09:01:51.697Z,17.77
2022-10-12T09:04:22.594Z,18.90
2022-10-12T09:07:15.193Z,17.10
2022-10-12T09:09:51.913Z,16.82
2022-10-12T09:12:51.959Z,17.92
2022-10-12T09:15:24.080Z,17.73
2022-10-12T09:17:56.769Z,16.60
2022-10-12T09:20:47.066Z,16.13
2022-10-12T09:23:24.426Z,17.07
2022-10-12T09:25:59.106Z,15.87
2022-10-12T09:28:37.644Z,15.83
2022-10-12T09:31:20.668Z,16.19
2022-10-12T09:33:54.221Z,15.31
2022-10-12T09:36:25.236Z,15.86
2022-10-12T09:38:53.656Z,15.33
2022-10-12T09:41:29.724Z,14.86
2022-10-12T09:44:00.535Z,14.81
2022-10-12T09:46:58.072Z,15.37
2022-10-12T09:49:47.266Z,14.68
2022-10-12T09:52:18.020Z,15.03
2022-10-12T09:54:49.870Z,14.38
2022-10-12T09:57:28.174Z,13.97
2022-10-12T09:59:56.147Z,13.59
2022-10-12T10:02:25.199Z,12.82
2022-10-12T10:04:54.177Z,14.15
2022-10-12T10:07:35.202Z,13.79
2022-10-12T10:10:16.144Z,13.13
2022-10-12T10:12:48.737Z,13.00
2022-10-12T10:15:23.596Z,12.89
2022-10-12T10:17:54.664Z,13.09
2022-10-12T10:20:36.894Z,13.75
2022-10-12T10:23:05.376Z,12.96
2022-10-12T10:25:34.124Z,13.39
2022-10-12T10:28:22.392Z,13.75
2022-10-12T10:30:59.955Z,13.35
2022-10-12T10:33:27.743Z,13.89
2022-10-12T10:36:05.030Z,14.17
2022-10-12T10:38:49.520Z,14.54
2022-10-12T10:41:20.665Z,15.19
2022-10-12T10:43:49.741Z,15.41
2022-10-12T10:46:27.989Z,15.23
2022-10-12T10:49:06.238Z,15.23
2022-10-12T10:51:53.947Z,16.08
2022-10-12T10:54:24.308Z,17.23
2022-10-12T10:56:56.897Z,17.71
2022-10-12T10:59:36.012Z,18.18
2022-10-12T11:02:11.300Z,18.23
2022-10-12T11:04:46.423Z,17.72
2022-10-12T11:07:56.387Z,17.59
2022-10-12T11:10:31.240Z,17.84
2022-10-12T11:13:24.428Z,17.83
2022-10-12T11:16:03.079Z,17.87
2022-10-12T11:18:41.551Z,17.53
2022-10-12T11:21:17.976Z,17.97
2022-10-12T11:23:51.367Z,17.97
2022-10-12T11:26:43.777Z,18.28
2022-10-12T11:29:14.956Z,19.53
2022-10-12T11:31:50.224Z,19.37
2022-10-12T11:34:21.875Z,19.72
2022-10-12T11:37:18.298Z,20.22
2022-10-12T11:39:47.901Z,20.46
2022-10-12T11:42:27.582Z,20.85
2022-10-12T11:44:55.497Z,20.44
2022-10-12T11:47:38.068Z,20.65
2022-10-12T11:50:27.150Z,20.62
2022-10-12T11:52:57.194Z,20.63
2022-10-12T11:55:30.750Z,20.35
2022-10-12T11:58:07.632Z,21.28
2022-10-12T12:01:04.402Z,21.53
2022-10-12T12:03:44.411Z,21.68
2022-10-12T12:06:32.441Z,22.44
2022-10-12T12:09:02.857Z,23.04
2022-10-12T12:11:33.869Z,23.74
2022-10-12T12:14:26.428Z,24.30
2022-10-12T12:17:14.023Z,24.78
2022-10-12T12:19:43.789Z,25.39
2022-10-12T12:22:31.836Z,25.64
2022-10-12T12:25:15.531Z,26.41
2022-10-12T12:27:45.053Z,27.19
2022-10-12T12:30:18.556Z,28.50
2022-10-12T12:32:56.654Z,28.77
2022-10-12T12:35:33.013Z,28.67
2022-10-12T12:38:05.083Z,29.28
2022-10-12T12:40:33.824Z,29.69
2022-10-12T12:43:29.821Z,30.39
2022-10-12T12:45:57.906Z,31.12
2022-10-12T12:48:43.817Z,32.01
2022-10-12T12:51:20.697Z,32.30
2022-10-12T12:53:55.729Z,32.12
2022-10-12T12:56:56.372Z,32.37
2022-10-12T12:59:50.526Z,32.52
2022-10-12T13:02:49.297Z,32.70
2022-10-12T13:05:38.665Z,33.37
2022-10-12T13:08:18.703Z,34.14
2022-10-12T13:11:14.526Z,34.64
2022-10-12T13:14:07.002Z,35.00
2022-10-12T13:19:42.163Z,35.65
2022-10-12T13:22:33.525Z,36.42
2022-10-12T13:25:07.166Z,36.28
2022-10-12T13:27:45.866Z,37.53
2022-10-12T13:30:36.341Z,38.90
2022-10-12T13:33:21.648Z,38.46
2022-10-12T13:36:13.244Z,38.22
2022-10-12T13:38:40.882Z,38.12
2022-10-12T13:41:13.208Z,39.09
2022-10-12T13:44:02.385Z,38.79
2022-10-12T13:46:45.217Z,38.80
2022-10-12T13:49:23.827Z,39.44
2022-10-12T13:51:57.915Z,39.29
2022-10-12T13:54:31.692Z,39.42
2022-10-12T13:57:03.107Z,39.61
2022-10-12T13:59:36.554Z,40.14
2022-10-12T14:02:17.212Z,39.57
2022-10-12T14:04:44.965Z,39.84
2022-10-12T14:07:22.580Z,40.03
2022-10-12T14:09:58.758Z,39.89
2022-10-12T14:12:30.050Z,39.82
2022-10-12T14:14:58.637Z,40.00
2022-10-12T14:17:26.362Z,40.79
2022-10-12T14:19:58.873Z,40.77
2022-10-12T14:22:30.223Z,41.32
2022-10-12T14:25:06.978Z,41.79
2022-10-12T14:27:37.960Z,42.97
2022-10-12T14:30:33.872Z,42.32
2022-10-12T14:33:16.968Z,42.01
2022-10-12T14:35:48.348Z,42.91
2022-10-12T14:38:45.697Z,42.89
2022-10-12T14:41:28.526Z,43.25
2022-10-12T14:44:08.319Z,43.56
2022-10-12T14:46:40.736Z,43.90
2022-10-12T14:49:20.346Z,44.61
2022-10-12T14:51:50.322Z,43.81
2022-10-12T14:54:18.109Z,44.74
2022-10-12T14:56:46.184Z,45.04
2022-10-12T14:59:14.951Z,45.67
2022-10-12T15:01:50.990Z,46.04
2022-10-12T15:04:19.277Z,45.86
2022-10-12T15:06:50.898Z,46.23
2022-10-12T15:09:19.549Z,45.68
2022-10-12T15:11:47.346Z,46.03
2022-10-12T15:14:15.296Z,46.19
2022-10-12T15:16:46.511Z,46.83
2022-10-12T15:19:14.399Z,47.73
2022-10-12T15:21:46.763Z,47.81
2022-10-12T15:24:15.624Z,47.33
2022-10-12T15:26:47.026Z,47.33
2022-10-12T15:29:14.724Z,48.28
2022-10-12T15:31:47.768Z,48.17
2022-10-12T15:34:19.102Z,48.92
2022-10-12T15:36:47.180Z,49.78
2022-10-12T15:39:14.845Z,50.09
2022-10-12T15:41:42.708Z,50.99
2022-10-12T15:44:13.168Z,52.17
2022-10-12T15:46:41.663Z,53.04
2022-10-12T15:49:09.519Z,53.29
2022-10-12T15:51:44.939Z,53.74
2022-10-12T15:54:12.680Z,53.65
2022-10-12T15:56:40.918Z,52.99
2022-10-12T15:59:08.781Z,54.62
2022-10-12T16:01:37.885Z,55.12
2022-10-12T16:04:07.515Z,55.64
2022-10-12T16:06:35.191Z,56.14
2022-10-12T16:09:02.906Z,55.13
2022-10-12T16:11:30.627Z,56.26
2022-10-12T16:13:58.257Z,56.84
2022-10-12T16:16:26.127Z,57.70
2022-10-12T16:18:54.348Z,57.95
2022-10-12T16:21:22.289Z,59.11
2022-10-12T16:23:49.974Z,59.26
2022-10-12T16:26:17.674Z,59.27
2022-10-12T16:28:45.531Z,59.54
2022-10-12T16:31:17.627Z,60.22
2022-10-12T16:33:45.719Z,60.84
2022-10-12T16:36:16.509Z,61.07
2022-10-12T16:38:44.343Z,61.18
2022-10-12T16:41:16.576Z,61.62
2022-10-12T16:43:44.450Z,67.15
2022-10-12T16:46:12.150Z,68.80
2022-10-12T16:48:39.803Z,64.53
2022-10-12T16:51:12.177Z,58.54
2022-10-12T16:53:42.309Z,53.85
2022-10-12T16:56:10.286Z,52.85
2022-10-12T16:58:37.960Z,52.91
2022-10-12T17:01:11.511Z,53.65
2022-10-12T17:03:40.338Z,54.47
2022-10-12T17:06:08.904Z,55.69
2022-10-12T17:08:39.129Z,56.35
2022-10-12T17:11:13.595Z,56.99
2022-10-12T17:13:45.241Z,57.80
2022-10-12T17:16:36.141Z,58.21
2022-10-12T17:19:04.542Z,59.10
2022-10-12T17:21:32.194Z,59.81
2022-10-12T17:24:01.017Z,60.16
2022-10-12T17:26:28.901Z,60.88
2022-10-12T17:28:56.623Z,66.04
2022-10-12T17:31:24.799Z,68.53
2022-10-12T17:33:53.123Z,64.50
2022-10-12T17:36:24.431Z,59.05
2022-10-12T17:38:56.809Z,54.44
2022-10-12T17:41:25.492Z,53.33
2022-10-12T17:43:53.172Z,53.89
2022-10-12T17:46:22.699Z,54.52
2022-10-12T17:48:51.017Z,55.51
2022-10-12T17:51:18.926Z,56.19
2022-10-12T17:53:46.837Z,56.92
2022-10-12T17:56:15.297Z,57.98
2022-10-12T17:58:43.097Z,58.87
2022-10-12T18:01:14.125Z,59.78
2022-10-12T18:03:45.373Z,60.52
2022-10-12T18:06:16.107Z,61.03
2022-10-12T18:08:44.414Z,66.29
2022-10-12T18:11:12.467Z,68.13
2022-10-12T18:13:40.280Z,64.23
2022-10-12T18:16:11.074Z,61.14
2022-10-12T18:18:39.697Z,56.21
2022-10-12T18:21:10.646Z,52.83
2022-10-12T18:23:38.413Z,52.69
2022-10-12T18:26:11.719Z,53.36
2022-10-12T18:28:40.837Z,54.48
2022-10-12T18:31:08.669Z,55.27
2022-10-12T18:33:36.372Z,55.09
2022-10-12T18:36:05.839Z,56.73
2022-10-12T18:38:34.439Z,57.91
2022-10-12T18:41:07.394Z,58.82
2022-10-12T18:43:36.265Z,59.90
2022-10-12T18:46:12.799Z,60.33
2022-10-12T18:48:41.026Z,60.83
2022-10-12T18:51:25.180Z,60.64
2022-10-12T18:53:53.181Z,67.66
2022-10-12T18:56:21.248Z,68.89
2022-10-12T18:58:49.537Z,64.83
2022-10-12T19:01:20.247Z,62.04
2022-10-12T19:03:48.808Z,56.65
2022-10-12T19:06:20.514Z,52.81
2022-10-12T19:08:49.083Z,52.10
2022-10-12T19:11:19.099Z,52.88
2022-10-12T19:13:55.528Z,54.02
2022-10-12T19:16:23.801Z,55.23
2022-10-12T19:18:59.838Z,56.47
2022-10-12T19:21:28.218Z,57.47
2022-10-12T19:23:56.133Z,58.63
2022-10-12T19:26:26.966Z,59.81
2022-10-12T19:28:56.418Z,61.04
2022-10-12T19:31:26.854Z,67.13
2022-10-12T19:33:59.666Z,67.89
2022-10-12T19:36:28.630Z,64.05
2022-10-12T19:38:58.960Z,57.98
2022-10-12T19:41:28.814Z,53.96
2022-10-12T19:43:57.541Z,53.32
2022-10-12T19:46:25.432Z,54.15
2022-10-12T19:48:55.078Z,54.94
2022-10-12T19:51:24.626Z,55.59
2022-10-12T19:53:57.521Z,57.32
2022-10-12T19:56:26.063Z,58.56
2022-10-12T19:58:56.251Z,59.24
2022-10-12T20:01:27.408Z,60.08
2022-10-12T20:03:55.918Z,60.71
2022-10-12T20:06:26.346Z,67.14
2022-10-12T20:08:56.192Z,68.98
2022-10-12T20:11:25.176Z,64.81
2022-10-12T20:13:53.416Z,61.06
2022-10-12T20:16:22.033Z,55.90
2022-10-12T20:18:50.478Z,52.77
2022-10-12T20:21:24.484Z,52.86
2022-10-12T20:23:52.276Z,53.97
2022-10-12T20:26:25.702Z,54.75
2022-10-12T20:28:54.475Z,55.51
2022-10-12T20:31:27.514Z,56.60
2022-10-12T20:33:57.793Z,57.16
2022-10-12T20:36:30.221Z,57.94
2022-10-12T20:38:59.340Z,58.85
2022-10-12T20:41:28.088Z,59.90
2022-10-12T20:43:57.236Z,60.89
2022-10-12T20:46:25.988Z,65.48
2022-10-12T20:48:58.817Z,68.72
2022-10-12T20:51:32.885Z,64.23
2022-10-12T20:54:03.076Z,61.23
2022-10-12T20:56:33.018Z,56.59
2022-10-12T20:59:01.437Z,52.68
2022-10-12T21:01:29.509Z,52.65
2022-10-12T21:03:57.422Z,52.80
2022-10-12T21:06:25.185Z,53.85
2022-10-12T21:08:55.273Z,54.96
2022-10-12T21:11:23.435Z,56.03
2022-10-12T21:13:51.155Z,57.14
2022-10-12T21:16:19.265Z,58.28
2022-10-12T21:18:47.158Z,59.70
2022-10-12T21:21:18.529Z,60.74
2022-10-12T21:23:57.713Z,66.24
2022-10-12T21:26:29.162Z,67.46
2022-10-12T21:28:58.267Z,64.04
2022-10-12T21:31:31.777Z,61.52
2022-10-12T21:34:05.111Z,57.10
2022-10-12T21:36:36.378Z,53.03
2022-10-12T21:39:09.868Z,52.59
2022-10-12T21:41:37.603Z,53.31
2022-10-12T21:44:05.684Z,54.07
2022-10-12T21:46:35.192Z,55.22
2022-10-12T21:49:04.656Z,55.85
2022-10-12T21:51:32.901Z,54.73
2022-10-12T21:54:00.633Z,56.65
2022-10-12T21:56:33.194Z,57.68
2022-10-12T21:59:02.185Z,59.32
2022-10-12T22:01:39.007Z,60.40
2022-10-12T22:04:11.836Z,65.38
2022-10-12T22:06:39.821Z,68.99
2022-10-12T22:09:11.903Z,65.77
2022-10-12T22:11:39.693Z,63.34
2022-10-12T22:14:11.274Z,60.91
2022-10-12T22:16:39.506Z,62.26
2022-10-12T22:19:08.428Z,55.49
2022-10-12T22:21:36.540Z,51.33
2022-10-12T22:24:05.936Z,50.70
2022-10-12T22:26:35.172Z,51.08
2022-10-12T22:29:05.126Z,51.78
2022-10-12T22:31:33.582Z,53.18
2022-10-12T22:34:01.297Z,54.26
2022-10-12T22:36:31.112Z,55.22
2022-10-12T22:38:59.616Z,55.90
2022-10-12T22:41:27.470Z,57.03
2022-10-12T22:43:56.847Z,57.83
2022-10-12T22:46:25.907Z,59.26
2022-10-12T22:48:54.612Z,60.68
2022-10-12T22:51:31.244Z,66.31
2022-10-12T22:54:00.386Z,70.23
2022-10-12T22:56:28.774Z,63.34
2022-10-12T22:58:59.099Z,57.17
2022-10-12T23:01:27.244Z,53.40
2022-10-12T23:03:55.385Z,52.64
2022-10-12T23:06:23.749Z,53.32
2022-10-12T23:08:51.759Z,54.15
2022-10-12T23:11:25.124Z,55.16
2022-10-12T23:13:54.372Z,56.43
2022-10-12T23:16:24.514Z,57.40
2022-10-12T23:18:59.933Z,58.33
2022-10-12T23:21:29.484Z,59.30
2022-10-12T23:40:08.686Z,55.80
2022-10-12T23:42:34.919Z,52.30
2022-10-12T23:45:03.361Z,51.49
2022-10-12T23:47:29.991Z,51.63
2022-10-12T23:49:56.224Z,52.37
2022-10-12T23:52:22.437Z,52.96
2022-10-12T23:54:50.266Z,53.97
2022-10-12T23:57:41.395Z,55.09
